createdAt,value
2023-01-30T00:00:16.576Z,36.73
2023-01-30T00:01:41.632Z,36.07
2023-01-30T00:03:03.808Z,38.90
2023-01-30T00:04:25.920Z,41.27
2023-01-30T00:05:48.247Z,41.53
2023-01-30T00:07:10.257Z,35.63
2023-01-30T00:08:32.341Z,36.43
2023-01-30T00:09:54.445Z,40.13
2023-01-30T00:11:17.974Z,37.40
2023-01-30T00:12:40.524Z,39.53
2023-01-30T00:14:02.564Z,39.50
2023-01-30T00:15:24.673Z,41.00
2023-01-30T00:16:46.736Z,36.10
2023-01-30T00:18:09.425Z,37.63
2023-01-30T00:19:31.518Z,37.03
2023-01-30T00:21:01.261Z,33.73
2023-01-30T00:22:23.372Z,35.53
2023-01-30T00:23:45.516Z,33.83
2023-01-30T00:25:08.053Z,36.87
2023-01-30T00:26:30.264Z,36.37
2023-01-30T00:27:52.361Z,35.03
2023-01-30T00:29:14.417Z,39.27
2023-01-30T00:30:36.582Z,38.93
2023-01-30T00:31:58.702Z,46.67
2023-01-30T00:33:22.630Z,43.43
2023-01-30T00:34:44.699Z,35.67
2023-01-30T00:36:07.291Z,37.80
2023-01-30T00:37:29.379Z,35.67
2023-01-30T00:38:51.401Z,43.53
2023-01-30T00:40:13.497Z,46.40
2023-01-30T00:41:53.986Z,44.57
2023-01-30T00:43:37.222Z,44.90
2023-01-30T00:45:17.975Z,46.80
2023-01-30T00:46:59.089Z,44.13
2023-01-30T00:48:21.310Z,47.77
2023-01-30T00:49:43.375Z,48.17
2023-01-30T00:51:05.561Z,52.77
2023-01-30T00:52:27.703Z,49.33
2023-01-30T00:53:49.754Z,43.30
2023-01-30T00:55:11.817Z,50.00
2023-01-30T00:56:33.909Z,47.60
2023-01-30T00:57:55.979Z,48.97
2023-01-30T00:59:18.094Z,51.57
2023-01-30T01:00:40.470Z,48.83
2023-01-30T01:02:02.467Z,47.00
2023-01-30T01:03:24.584Z,50.70
2023-01-30T01:04:46.662Z,45.30
2023-01-30T01:06:09.059Z,43.57
2023-01-30T01:07:31.080Z,49.83
2023-01-30T01:08:53.251Z,47.90
2023-01-30T01:10:16.549Z,48.70
2023-01-30T01:11:38.630Z,47.40
2023-01-30T01:13:00.707Z,42.67
2023-01-30T01:14:22.753Z,42.10
2023-01-30T01:15:44.812Z,44.20
2023-01-30T01:17:06.878Z,46.87
2023-01-30T01:18:28.944Z,57.83
2023-01-30T01:19:50.993Z,52.13
2023-01-30T01:21:13.446Z,45.10
2023-01-30T01:22:35.885Z,41.97
2023-01-30T01:23:59.534Z,47.40
2023-01-30T01:25:22.783Z,48.00
2023-01-30T01:26:45.404Z,50.73
2023-01-30T01:28:07.573Z,43.47
2023-01-30T01:29:29.690Z,44.77
2023-01-30T01:30:51.801Z,42.17
2023-01-30T01:32:13.970Z,43.37
2023-01-30T01:33:36.105Z,46.23
2023-01-30T01:34:58.077Z,40.20
2023-01-30T01:36:49.792Z,41.97
2023-01-30T01:38:02.228Z,41.20
2023-01-30T01:39:24.397Z,41.67
2023-01-30T01:41:01.823Z,43.30
2023-01-30T01:42:33.128Z,43.17
2023-01-30T01:44:08.619Z,39.10
2023-01-30T01:45:30.756Z,37.73
2023-01-30T01:46:59.262Z,38.53
2023-01-30T01:48:24.407Z,41.40
2023-01-30T01:49:46.617Z,37.20
2023-01-30T01:51:17.520Z,39.20
2023-01-30T01:52:40.005Z,39.33
2023-01-30T01:54:14.634Z,38.90
2023-01-30T01:55:37.001Z,37.30
2023-01-30T01:57:05.149Z,36.77
2023-01-30T01:58:42.899Z,44.13
2023-01-30T02:00:16.793Z,43.40
2023-01-30T02:01:38.937Z,42.13
2023-01-30T02:03:05.087Z,37.70
2023-01-30T02:04:46.943Z,39.60
2023-01-30T02:06:10.198Z,36.53
2023-01-30T02:07:57.659Z,35.03
2023-01-30T02:09:19.790Z,44.80
2023-01-30T02:11:00.636Z,36.23
2023-01-30T02:12:22.784Z,35.33
2023-01-30T02:13:46.883Z,45.10
2023-01-30T02:15:09.427Z,40.33
2023-01-30T02:16:31.533Z,37.07
2023-01-30T02:17:53.700Z,38.30
2023-01-30T02:19:33.636Z,37.97
2023-01-30T02:21:43.033Z,39.63
2023-01-30T02:23:23.736Z,37.30
2023-01-30T02:25:06.931Z,39.23
2023-01-30T02:26:47.229Z,35.37
2023-01-30T02:28:24.652Z,34.73
2023-01-30T02:29:58.440Z,43.77
2023-01-30T02:31:35.796Z,31.50
2023-01-30T02:33:03.991Z,39.00
2023-01-30T02:34:47.311Z,33.67
2023-01-30T02:36:31.381Z,35.10
2023-01-30T02:38:16.647Z,40.80
2023-01-30T02:40:01.055Z,44.23
2023-01-30T02:41:59.883Z,34.93
2023-01-30T02:43:42.837Z,36.53
2023-01-30T02:45:04.821Z,32.10
2023-01-30T02:46:58.416Z,38.97
2023-01-30T02:48:54.065Z,32.97
2023-01-30T02:50:34.491Z,38.27
2023-01-30T02:52:00.312Z,40.63
2023-01-30T02:53:23.031Z,32.10
2023-01-30T02:54:45.124Z,35.83
2023-01-30T02:56:07.458Z,32.87
2023-01-30T02:57:29.527Z,36.50
2023-01-30T02:59:02.107Z,40.67
2023-01-30T03:00:55.453Z,33.90
2023-01-30T03:02:17.470Z,34.80
2023-01-30T03:04:06.860Z,31.13
2023-01-30T03:05:46.755Z,31.17
2023-01-30T03:07:27.234Z,33.83
2023-01-30T03:09:16.584Z,33.30
2023-01-30T03:10:54.630Z,30.80
2023-01-30T03:12:54.915Z,33.00
2023-01-30T03:14:30.801Z,33.27
2023-01-30T03:16:02.523Z,29.43
2023-01-30T03:17:27.076Z,38.53
2023-01-30T03:18:49.882Z,35.90
2023-01-30T03:20:14.256Z,32.83
2023-01-30T03:21:44.550Z,31.77
2023-01-30T03:23:07.784Z,32.87
2023-01-30T03:24:29.889Z,28.33
2023-01-30T03:25:52.032Z,31.60
2023-01-30T03:27:14.085Z,29.87
2023-01-30T03:28:36.630Z,32.57
2023-01-30T03:29:58.675Z,35.60
2023-01-30T03:31:21.001Z,34.33
2023-01-30T03:32:43.166Z,34.83
2023-01-30T03:34:05.255Z,29.30
2023-01-30T03:35:27.486Z,34.80
2023-01-30T03:36:49.812Z,28.70
2023-01-30T03:38:11.937Z,27.80
2023-01-30T03:39:33.995Z,35.90
2023-01-30T03:40:56.108Z,31.87
2023-01-30T03:42:18.155Z,30.87
2023-01-30T03:43:40.275Z,32.23
2023-01-30T03:45:02.363Z,31.50
2023-01-30T03:46:24.452Z,28.60
2023-01-30T03:47:46.531Z,28.20
2023-01-30T03:49:08.869Z,32.43
2023-01-30T03:50:30.897Z,25.57
2023-01-30T03:51:52.926Z,25.53
2023-01-30T03:53:15.048Z,27.33
2023-01-30T03:54:37.086Z,26.23
2023-01-30T03:55:59.097Z,24.70
2023-01-30T03:57:21.171Z,24.57
2023-01-30T03:58:43.254Z,26.87
2023-01-30T04:00:05.787Z,27.50
2023-01-30T04:01:27.986Z,27.67
2023-01-30T04:02:50.221Z,25.97
2023-01-30T04:04:12.278Z,22.60
2023-01-30T04:05:34.350Z,27.90
2023-01-30T04:06:56.422Z,19.23
2023-01-30T04:08:18.458Z,19.77
2023-01-30T04:09:40.499Z,20.47
2023-01-30T04:11:02.675Z,19.00
2023-01-30T04:12:24.689Z,20.87
2023-01-30T04:13:46.752Z,20.20
2023-01-30T04:15:09.948Z,21.30
2023-01-30T04:16:32.026Z,15.17
2023-01-30T04:17:54.134Z,21.00
2023-01-30T04:19:16.270Z,16.13
2023-01-30T04:20:38.814Z,16.30
2023-01-30T04:22:00.885Z,20.90
2023-01-30T04:23:22.965Z,18.43
2023-01-30T04:24:45.004Z,17.27
2023-01-30T04:26:07.717Z,16.77
2023-01-30T04:27:29.851Z,13.67
2023-01-30T04:28:51.967Z,16.40
2023-01-30T04:30:14.575Z,15.63
2023-01-30T04:31:36.617Z,14.67
2023-01-30T04:32:58.852Z,17.30
2023-01-30T04:34:20.838Z,13.00
2023-01-30T04:35:54.728Z,14.67
2023-01-30T04:37:16.762Z,15.10
2023-01-30T04:38:39.552Z,17.07
2023-01-30T04:40:01.581Z,17.50
2023-01-30T04:41:23.714Z,12.83
2023-01-30T04:42:45.766Z,16.17
2023-01-30T04:44:07.904Z,15.53
2023-01-30T04:45:30.423Z,14.20
2023-01-30T04:46:52.524Z,14.57
2023-01-30T04:48:15.656Z,12.13
2023-01-30T04:49:37.700Z,13.67
2023-01-30T04:51:00.003Z,14.17
2023-01-30T04:52:22.015Z,11.53
2023-01-30T04:53:44.131Z,12.97
2023-01-30T04:55:06.489Z,11.87
2023-01-30T04:56:28.654Z,12.47
2023-01-30T04:57:50.673Z,15.23
2023-01-30T04:59:12.796Z,12.07
2023-01-30T05:00:34.939Z,12.17
2023-01-30T05:01:57.023Z,11.10
2023-01-30T05:03:19.056Z,12.17
2023-01-30T05:04:41.164Z,12.07
2023-01-30T05:06:03.230Z,10.97
2023-01-30T05:07:25.267Z,13.43
2023-01-30T05:08:55.313Z,10.77
2023-01-30T05:10:18.372Z,14.10
2023-01-30T05:11:40.508Z,10.17
2023-01-30T05:13:06.567Z,14.07
2023-01-30T05:14:28.623Z,11.53
2023-01-30T05:15:50.649Z,12.10
2023-01-30T05:17:12.730Z,11.80
2023-01-30T05:18:34.740Z,10.03
2023-01-30T05:19:56.796Z,11.03
2023-01-30T05:21:28.632Z,10.80
2023-01-30T05:22:50.734Z,13.17
2023-01-30T05:24:12.812Z,12.90
2023-01-30T05:25:34.832Z,10.90
2023-01-30T05:26:56.905Z,11.03
2023-01-30T05:28:18.941Z,12.47
2023-01-30T05:29:41.355Z,11.33
2023-01-30T05:31:12.413Z,9.87
2023-01-30T05:32:34.640Z,13.17
2023-01-30T05:33:56.741Z,15.40
2023-01-30T05:35:19.103Z,10.97
2023-01-30T05:36:41.312Z,14.63
2023-01-30T05:38:03.558Z,11.33
2023-01-30T05:39:25.596Z,12.70
2023-01-30T05:40:47.623Z,13.80
2023-01-30T05:42:09.712Z,10.37
2023-01-30T05:43:32.590Z,10.60
2023-01-30T05:44:54.672Z,11.33
2023-01-30T05:46:17.192Z,11.67
2023-01-30T05:47:39.335Z,13.60
2023-01-30T05:49:01.701Z,12.20
2023-01-30T05:50:23.769Z,9.10
2023-01-30T05:51:45.833Z,14.33
2023-01-30T05:53:07.881Z,12.00
2023-01-30T05:54:29.964Z,11.63
2023-01-30T05:55:59.357Z,12.27
2023-01-30T05:57:21.406Z,10.00
2023-01-30T05:58:44.281Z,13.30
2023-01-30T06:00:06.936Z,9.13
2023-01-30T06:01:29.938Z,10.77
2023-01-30T06:02:51.987Z,11.50
2023-01-30T06:04:14.434Z,10.43
2023-01-30T06:05:38.406Z,11.13
2023-01-30T06:07:00.424Z,11.57
2023-01-30T06:08:22.750Z,8.33
2023-01-30T06:09:44.813Z,9.07
2023-01-30T06:11:11.458Z,8.57
2023-01-30T06:12:33.459Z,9.57
2023-01-30T06:13:55.610Z,13.30
2023-01-30T06:15:17.941Z,8.77
2023-01-30T06:16:40.292Z,17.70
2023-01-30T06:18:02.386Z,9.73
2023-01-30T06:19:24.550Z,9.83
2023-01-30T06:20:50.919Z,9.50
2023-01-30T06:22:12.987Z,9.43
2023-01-30T06:23:35.741Z,12.93
2023-01-30T06:24:57.763Z,10.30
2023-01-30T06:26:19.893Z,11.20
2023-01-30T06:27:43.245Z,10.20
2023-01-30T06:29:05.427Z,14.10
2023-01-30T06:30:27.583Z,10.90
2023-01-30T06:31:50.004Z,10.70
2023-01-30T06:33:12.070Z,12.67
2023-01-30T06:34:34.161Z,13.60
2023-01-30T06:35:56.189Z,9.43
2023-01-30T06:37:18.223Z,9.67
2023-01-30T06:38:40.332Z,14.10
2023-01-30T06:40:02.447Z,13.00
2023-01-30T06:41:24.544Z,10.80
2023-01-30T06:42:48.053Z,11.67
2023-01-30T06:44:10.358Z,9.77
2023-01-30T06:45:32.563Z,13.60
2023-01-30T06:46:54.703Z,9.10
2023-01-30T06:48:16.742Z,9.20
2023-01-30T06:49:38.783Z,7.27
2023-01-30T06:51:00.919Z,8.50
2023-01-30T06:52:22.952Z,13.60
2023-01-30T06:53:45.122Z,8.40
2023-01-30T06:55:08.158Z,11.03
2023-01-30T06:56:30.246Z,9.83
2023-01-30T06:58:03.460Z,13.67
2023-01-30T06:59:25.549Z,9.10
2023-01-30T07:00:47.761Z,9.13
2023-01-30T07:02:12.768Z,9.57
2023-01-30T07:03:34.865Z,16.10
2023-01-30T07:04:56.938Z,6.80
2023-01-30T07:06:19.042Z,9.83
2023-01-30T07:07:41.153Z,8.23
2023-01-30T07:09:03.496Z,7.50
2023-01-30T07:10:26.242Z,13.13
2023-01-30T07:11:50.249Z,7.53
2023-01-30T07:13:12.744Z,7.10
2023-01-30T07:14:34.779Z,8.30
2023-01-30T07:15:56.850Z,12.50
2023-01-30T07:17:19.474Z,7.67
2023-01-30T07:18:41.502Z,7.87
2023-01-30T07:20:03.690Z,9.80
2023-01-30T07:21:27.254Z,11.13
2023-01-30T07:22:51.533Z,8.60
2023-01-30T07:24:13.649Z,6.97
2023-01-30T07:25:35.894Z,9.50
2023-01-30T07:26:57.919Z,12.23
2023-01-30T07:28:19.969Z,9.23
2023-01-30T07:29:42.065Z,6.40
2023-01-30T07:31:04.174Z,10.93
2023-01-30T07:32:26.378Z,10.83
2023-01-30T07:33:48.447Z,10.23
2023-01-30T07:35:10.742Z,9.93
2023-01-30T07:36:34.672Z,9.80
2023-01-30T07:37:57.122Z,8.10
2023-01-30T07:39:19.259Z,12.20
2023-01-30T07:40:41.291Z,8.53
2023-01-30T07:42:03.748Z,13.87
2023-01-30T07:43:25.868Z,10.57
2023-01-30T07:44:48.131Z,11.80
2023-01-30T07:46:10.293Z,8.80
2023-01-30T07:47:32.310Z,16.97
2023-01-30T07:48:54.392Z,9.63
2023-01-30T07:50:17.249Z,17.80
2023-01-30T07:51:39.493Z,15.80
2023-01-30T07:53:11.169Z,14.03
2023-01-30T07:54:33.503Z,15.10
2023-01-30T07:55:55.531Z,18.43
2023-01-30T07:57:17.792Z,11.03
2023-01-30T07:58:40.243Z,13.10
2023-01-30T08:00:02.854Z,11.33
2023-01-30T08:01:24.949Z,12.60
2023-01-30T08:02:46.994Z,19.73
2023-01-30T08:04:09.062Z,14.17
2023-01-30T08:05:31.676Z,12.33
2023-01-30T08:06:53.825Z,17.43
2023-01-30T08:08:16.049Z,13.27
2023-01-30T08:09:38.088Z,7.83
2023-01-30T08:11:00.122Z,12.13
2023-01-30T08:12:22.293Z,7.73
2023-01-30T08:13:44.601Z,6.10
2023-01-30T08:15:08.581Z,14.93
2023-01-30T08:16:32.472Z,13.50
2023-01-30T08:17:56.323Z,15.13
2023-01-30T08:19:18.615Z,14.20
2023-01-30T08:20:42.707Z,8.20
2023-01-30T08:22:04.788Z,21.43
2023-01-30T08:23:27.550Z,11.20
2023-01-30T08:24:49.752Z,7.70
2023-01-30T08:26:12.038Z,6.37
2023-01-30T08:27:34.093Z,7.80
2023-01-30T08:28:56.226Z,12.23
2023-01-30T08:30:19.297Z,12.23
2023-01-30T08:31:41.721Z,15.80
2023-01-30T08:33:03.940Z,11.10
2023-01-30T08:34:26.640Z,10.23
2023-01-30T08:35:48.875Z,23.27
2023-01-30T08:37:10.892Z,11.50
2023-01-30T08:38:33.003Z,12.10
2023-01-30T08:39:55.060Z,7.77
2023-01-30T08:41:17.279Z,8.13
2023-01-30T08:42:39.417Z,11.90
2023-01-30T08:44:01.576Z,12.87
2023-01-30T08:45:23.620Z,10.50
2023-01-30T08:46:45.735Z,11.57
2023-01-30T08:48:08.153Z,6.20
2023-01-30T08:49:30.172Z,17.23
2023-01-30T08:50:53.398Z,8.63
2023-01-30T08:52:15.421Z,14.10
2023-01-30T08:53:37.486Z,10.80
2023-01-30T08:54:59.553Z,8.90
2023-01-30T08:56:21.749Z,4.60
2023-01-30T08:57:44.218Z,7.17
2023-01-30T08:59:06.246Z,9.73
2023-01-30T09:00:28.954Z,14.40
2023-01-30T09:01:50.984Z,8.70
2023-01-30T09:03:14.486Z,7.03
2023-01-30T09:04:37.485Z,11.43
2023-01-30T09:05:59.523Z,5.13
2023-01-30T09:07:21.647Z,9.23
2023-01-30T09:08:43.775Z,14.40
2023-01-30T09:10:06.251Z,6.57
2023-01-30T09:11:28.623Z,13.20
2023-01-30T09:12:51.303Z,7.40
2023-01-30T09:14:13.497Z,12.83
2023-01-30T09:15:35.623Z,9.30
2023-01-30T09:16:57.703Z,7.63
2023-01-30T09:18:20.180Z,9.47
2023-01-30T09:19:42.217Z,7.13
2023-01-30T09:21:05.272Z,8.13
2023-01-30T09:22:27.284Z,7.50
2023-01-30T09:23:49.321Z,10.60
2023-01-30T09:25:11.405Z,8.60
2023-01-30T09:26:33.587Z,11.50
2023-01-30T09:27:55.583Z,14.53
2023-01-30T09:29:17.756Z,9.63
2023-01-30T09:30:39.933Z,12.23
2023-01-30T09:32:02.120Z,6.57
2023-01-30T09:33:24.623Z,8.93
2023-01-30T09:34:46.693Z,7.57
2023-01-30T09:36:09.227Z,11.37
2023-01-30T09:37:31.286Z,11.43
2023-01-30T09:38:53.328Z,6.30
2023-01-30T09:40:20.483Z,8.80
2023-01-30T09:41:51.902Z,9.00
2023-01-30T09:43:56.117Z,3.83
2023-01-30T09:45:55.771Z,8.60
2023-01-30T09:47:43.932Z,3.93
2023-01-30T09:49:34.526Z,4.37
2023-01-30T09:51:02.675Z,4.90
2023-01-30T09:52:38.444Z,7.73
2023-01-30T09:54:03.574Z,5.33
2023-01-30T09:55:29.192Z,7.50
2023-01-30T09:57:21.208Z,4.40
2023-01-30T09:58:59.255Z,3.67
2023-01-30T10:00:44.115Z,4.40
2023-01-30T10:02:09.195Z,5.37
2023-01-30T10:03:39.684Z,2.50
2023-01-30T10:05:03.380Z,1.77
2023-01-30T10:06:25.491Z,3.87
2023-01-30T10:07:54.670Z,5.53
2023-01-30T10:09:51.577Z,2.17
2023-01-30T10:11:34.788Z,2.83
2023-01-30T10:13:14.837Z,1.23
2023-01-30T10:14:59.572Z,2.80
2023-01-30T10:16:36.396Z,2.00
2023-01-30T10:18:04.126Z,2.77
2023-01-30T10:19:56.566Z,1.77
2023-01-30T10:21:40.507Z,6.83
2023-01-30T10:23:30.295Z,2.67
2023-01-30T10:25:20.028Z,1.10
2023-01-30T10:26:43.441Z,2.90
2023-01-30T10:28:52.534Z,4.40
2023-01-30T10:30:21.655Z,4.73
2023-01-30T10:31:49.006Z,3.90
2023-01-30T10:33:26.748Z,3.13
2023-01-30T10:34:54.804Z,1.90
2023-01-30T10:36:27.675Z,2.37
2023-01-30T10:38:18.840Z,3.07
2023-01-30T10:39:54.915Z,3.87
2023-01-30T10:41:21.257Z,1.90
2023-01-30T10:42:52.622Z,2.43
2023-01-30T10:44:18.376Z,2.30
2023-01-30T10:46:04.407Z,2.20
2023-01-30T10:47:46.571Z,2.40
2023-01-30T10:49:47.091Z,1.03
2023-01-30T10:51:50.394Z,3.77
2023-01-30T10:53:31.500Z,1.30
2023-01-30T10:55:07.308Z,2.83
2023-01-30T10:56:58.103Z,2.33
2023-01-30T10:58:48.708Z,3.47
2023-01-30T11:00:23.247Z,4.00
2023-01-30T11:02:02.583Z,2.50
2023-01-30T11:03:33.012Z,2.50
2023-01-30T11:05:14.270Z,10.37
2023-01-30T11:06:36.393Z,7.10
2023-01-30T11:07:58.540Z,5.03
2023-01-30T11:09:20.571Z,4.50
2023-01-30T11:10:42.639Z,3.13
2023-01-30T11:12:04.837Z,3.80
2023-01-30T11:13:32.277Z,3.13
2023-01-30T11:15:04.180Z,4.47
2023-01-30T11:16:26.747Z,3.23
2023-01-30T11:17:48.992Z,4.50
2023-01-30T11:19:21.543Z,3.00
2023-01-30T11:20:51.359Z,3.00
2023-01-30T11:22:15.387Z,3.63
2023-01-30T11:23:43.977Z,3.73
2023-01-30T11:25:14.588Z,6.10
2023-01-30T11:26:46.744Z,4.30
2023-01-30T11:28:15.382Z,4.50
2023-01-30T11:29:39.325Z,3.20
2023-01-30T11:31:01.588Z,5.13
2023-01-30T11:32:28.326Z,6.43
2023-01-30T11:34:12.290Z,2.67
2023-01-30T11:35:41.159Z,4.33
2023-01-30T11:37:14.105Z,5.77
2023-01-30T11:38:40.770Z,5.37
2023-01-30T11:40:17.808Z,4.97
2023-01-30T11:41:56.511Z,3.90
2023-01-30T11:43:18.611Z,3.50
2023-01-30T11:44:42.388Z,11.47
2023-01-30T11:46:07.327Z,15.60
2023-01-30T11:47:29.582Z,4.50
2023-01-30T11:49:45.878Z,5.25
2023-01-30T11:50:50.260Z,5.57
2023-01-30T11:52:13.430Z,11.50
2023-01-30T11:54:11.353Z,5.10
2023-01-30T11:55:37.187Z,7.53
2023-01-30T11:57:03.348Z,4.40
2023-01-30T11:58:31.191Z,7.83
2023-01-30T11:59:59.083Z,5.57
2023-01-30T12:01:21.165Z,11.30
2023-01-30T12:02:44.860Z,4.10
2023-01-30T12:04:11.042Z,6.07
2023-01-30T12:05:36.610Z,13.90
2023-01-30T12:07:26.595Z,7.50
2023-01-30T12:08:53.222Z,4.27
2023-01-30T12:10:32.538Z,4.80
2023-01-30T12:11:54.630Z,12.93
2023-01-30T12:13:29.480Z,3.20
2023-01-30T12:14:53.506Z,4.50
2023-01-30T12:16:27.028Z,10.97
2023-01-30T12:17:55.130Z,3.23
2023-01-30T12:19:45.079Z,3.07
2023-01-30T12:21:19.202Z,10.10
2023-01-30T12:23:03.531Z,8.63
2023-01-30T12:24:36.101Z,8.23
2023-01-30T12:26:20.225Z,10.20
2023-01-30T12:28:01.018Z,14.83
2023-01-30T12:29:23.015Z,12.60
2023-01-30T12:30:56.424Z,8.00
2023-01-30T12:32:22.567Z,5.00
2023-01-30T12:33:44.694Z,9.57
2023-01-30T12:35:18.203Z,7.10
2023-01-30T12:36:52.312Z,12.97
2023-01-30T12:38:20.426Z,9.90
2023-01-30T12:39:57.535Z,7.73
2023-01-30T12:41:22.315Z,10.37
2023-01-30T12:42:56.477Z,10.63
2023-01-30T12:44:55.077Z,4.47
2023-01-30T12:46:51.339Z,8.40
2023-01-30T12:50:56.147Z,11.03
2023-01-30T12:52:48.806Z,12.60
2023-01-30T12:54:36.835Z,6.17
2023-01-30T12:56:20.835Z,4.83
2023-01-30T12:57:57.806Z,12.10
2023-01-30T12:59:38.472Z,12.97
2023-01-30T13:01:25.071Z,6.10
2023-01-30T13:02:56.170Z,13.57
2023-01-30T13:04:56.638Z,11.30
2023-01-30T13:06:33.439Z,7.70
2023-01-30T13:08:18.811Z,10.13
2023-01-30T13:10:05.083Z,8.63
2023-01-30T13:11:44.029Z,4.00
2023-01-30T13:13:21.578Z,7.40
2023-01-30T13:14:52.449Z,6.00
2023-01-30T13:16:33.339Z,12.67
2023-01-30T13:18:15.145Z,4.90
2023-01-30T13:19:45.960Z,7.87
2023-01-30T13:21:34.727Z,16.43
2023-01-30T13:23:19.802Z,3.50
2023-01-30T13:24:57.700Z,4.73
2023-01-30T13:26:24.397Z,3.70
2023-01-30T13:27:55.158Z,6.23
2023-01-30T13:29:31.370Z,9.53
2023-01-30T13:30:54.768Z,8.03
2023-01-30T13:32:37.121Z,5.30
2023-01-30T13:34:22.497Z,7.30
2023-01-30T13:36:10.577Z,4.30
2023-01-30T13:37:34.041Z,1.43
2023-01-30T13:39:05.980Z,7.13
2023-01-30T13:40:36.021Z,7.67
2023-01-30T13:42:01.907Z,4.70
2023-01-30T13:43:31.806Z,5.03
2023-01-30T13:44:55.435Z,7.87
2023-01-30T13:46:26.677Z,2.40
2023-01-30T13:48:10.595Z,5.53
2023-01-30T13:49:55.614Z,4.03
2023-01-30T13:51:43.215Z,8.27
2023-01-30T13:53:08.263Z,2.70
2023-01-30T13:54:39.220Z,7.77
2023-01-30T13:56:27.012Z,4.17
2023-01-30T13:58:09.529Z,6.70
2023-01-30T13:59:40.905Z,6.80
2023-01-30T14:01:03.107Z,8.27
2023-01-30T14:02:25.909Z,4.40
2023-01-30T14:03:47.985Z,4.83
2023-01-30T14:05:10.163Z,7.30
2023-01-30T14:06:36.613Z,5.40
2023-01-30T14:07:58.775Z,12.03
2023-01-30T14:09:26.519Z,8.03
2023-01-30T14:10:49.833Z,12.33
2023-01-30T14:12:25.658Z,10.10
2023-01-30T14:13:53.622Z,11.00
2023-01-30T14:15:16.196Z,3.97
2023-01-30T14:16:46.782Z,3.40
2023-01-30T14:18:42.468Z,7.83
2023-01-30T14:20:19.936Z,7.37
2023-01-30T14:21:55.535Z,11.33
2023-01-30T14:23:28.726Z,7.10
2023-01-30T14:25:27.782Z,5.80
2023-01-30T14:26:53.102Z,11.70
2023-01-30T14:28:18.303Z,4.43
2023-01-30T14:29:43.217Z,10.70
2023-01-30T14:31:07.493Z,8.40
2023-01-30T14:32:50.741Z,6.67
2023-01-30T14:35:06.823Z,10.70
2023-01-30T14:36:35.598Z,6.95
2023-01-30T14:38:06.535Z,6.17
2023-01-30T14:39:40.595Z,9.32
2023-01-30T14:41:02.734Z,19.50
2023-01-30T14:42:27.890Z,10.20
2023-01-30T14:43:53.514Z,11.23
2023-01-30T14:45:17.238Z,9.30
2023-01-30T14:46:42.574Z,11.20
2023-01-30T14:48:39.621Z,20.53
2023-01-30T14:50:03.856Z,9.77
2023-01-30T14:51:35.981Z,8.53
2023-01-30T14:52:58.112Z,7.07
2023-01-30T14:54:33.311Z,11.40
2023-01-30T14:56:04.054Z,7.10
2023-01-30T14:57:32.752Z,8.73
2023-01-30T14:59:01.942Z,6.20
2023-01-30T15:00:29.285Z,8.40
2023-01-30T15:02:14.627Z,6.57
2023-01-30T15:03:41.093Z,10.43
2023-01-30T15:05:18.591Z,9.00
2023-01-30T15:06:40.943Z,5.67
2023-01-30T15:08:13.539Z,17.07
2023-01-30T15:09:36.914Z,10.97
2023-01-30T15:11:19.363Z,7.50
2023-01-30T15:12:56.455Z,8.57
2023-01-30T15:14:29.764Z,10.70
2023-01-30T15:16:06.016Z,15.63
2023-01-30T15:18:07.963Z,14.70
2023-01-30T15:19:33.946Z,7.77
2023-01-30T15:20:55.929Z,10.83
2023-01-30T15:22:48.998Z,17.47
2023-01-30T15:24:29.231Z,5.33
2023-01-30T15:26:05.199Z,8.30
2023-01-30T15:27:31.919Z,11.87
2023-01-30T15:29:31.538Z,8.33
2023-01-30T15:30:58.093Z,7.80
2023-01-30T15:32:23.213Z,6.50
2023-01-30T15:33:51.262Z,6.87
2023-01-30T15:35:16.296Z,8.97
2023-01-30T15:36:38.854Z,10.93
2023-01-30T15:38:01.047Z,8.80
2023-01-30T15:39:25.857Z,6.70
2023-01-30T15:40:48.017Z,8.33
2023-01-30T15:42:15.150Z,10.67
2023-01-30T15:43:53.434Z,16.17
2023-01-30T15:45:52.389Z,10.13
2023-01-30T15:47:33.694Z,5.20
2023-01-30T15:48:58.620Z,12.97
2023-01-30T15:50:21.403Z,9.70
2023-01-30T15:51:43.747Z,20.53
2023-01-30T15:53:14.821Z,11.63
2023-01-30T15:54:37.313Z,8.43
2023-01-30T15:56:02.103Z,8.83
2023-01-30T15:57:31.734Z,11.50
2023-01-30T15:58:56.214Z,10.00
2023-01-30T16:00:26.502Z,12.57
2023-01-30T16:01:57.830Z,11.77
2023-01-30T16:03:35.270Z,5.87
2023-01-30T16:05:15.366Z,15.17
2023-01-30T16:06:37.896Z,11.90
2023-01-30T16:08:18.563Z,8.30
2023-01-30T16:09:40.619Z,8.83
2023-01-30T16:11:03.440Z,10.65
2023-01-30T16:12:27.426Z,17.97
2023-01-30T16:13:49.578Z,6.37
2023-01-30T16:15:35.557Z,9.90
2023-01-30T16:17:03.826Z,6.10
2023-01-30T16:18:25.970Z,9.90
2023-01-30T16:19:48.130Z,11.47
2023-01-30T16:21:18.282Z,7.43
2023-01-30T16:22:44.293Z,5.80
2023-01-30T16:24:08.022Z,18.30
2023-01-30T16:25:34.327Z,7.57
2023-01-30T16:27:18.719Z,7.33
2023-01-30T16:28:41.257Z,6.93
2023-01-30T16:30:08.559Z,11.13
2023-01-30T16:31:37.500Z,6.23
2023-01-30T16:33:07.560Z,4.90
2023-01-30T16:34:35.435Z,4.70
2023-01-30T16:35:57.520Z,16.50
2023-01-30T16:37:19.576Z,9.20
2023-01-30T16:38:46.826Z,10.60
2023-01-30T16:40:11.654Z,8.50
2023-01-30T16:41:35.134Z,8.43
2023-01-30T16:43:23.262Z,7.53
2023-01-30T16:44:45.310Z,7.80
2023-01-30T16:46:26.898Z,6.23
2023-01-30T16:47:49.180Z,12.60
2023-01-30T16:49:21.898Z,29.13
2023-01-30T16:50:48.409Z,11.33
2023-01-30T16:52:34.769Z,11.77
2023-01-30T16:54:03.316Z,12.57
2023-01-30T16:55:26.668Z,15.30
2023-01-30T16:56:53.271Z,13.67
2023-01-30T16:58:17.878Z,11.33
2023-01-30T16:59:40.081Z,5.20
2023-01-30T17:01:05.504Z,14.10
2023-01-30T17:02:37.227Z,17.47
2023-01-30T17:04:02.141Z,13.80
2023-01-30T17:05:46.641Z,10.90
2023-01-30T17:07:33.112Z,13.60
2023-01-30T17:08:57.691Z,10.57
2023-01-30T17:10:28.805Z,16.93
2023-01-30T17:13:34.106Z,13.20
2023-01-30T17:15:13.793Z,7.90
2023-01-30T17:16:36.123Z,14.23
2023-01-30T17:17:58.372Z,11.33
2023-01-30T17:19:21.328Z,8.00
2023-01-30T17:20:47.588Z,6.70
2023-01-30T17:22:20.573Z,10.23
2023-01-30T17:23:46.620Z,13.23
2023-01-30T17:25:18.548Z,13.93
2023-01-30T17:26:41.127Z,7.43
2023-01-30T17:28:04.700Z,9.43
2023-01-30T17:29:43.651Z,9.00
2023-01-30T17:31:06.258Z,11.37
2023-01-30T17:32:28.649Z,19.70
2023-01-30T17:33:50.855Z,17.57
2023-01-30T17:35:13.080Z,22.47
2023-01-30T17:36:35.213Z,17.10
2023-01-30T17:38:05.146Z,14.13
2023-01-30T17:39:28.977Z,20.50
2023-01-30T17:40:51.085Z,12.90
2023-01-30T17:42:14.358Z,20.43
2023-01-30T17:43:36.454Z,19.77
2023-01-30T17:44:59.798Z,20.77
2023-01-30T17:46:26.903Z,16.30
2023-01-30T17:47:49.045Z,9.20
2023-01-30T17:49:24.419Z,13.87
2023-01-30T17:50:46.547Z,18.17
2023-01-30T17:52:08.710Z,18.93
2023-01-30T17:53:30.833Z,14.60
2023-01-30T17:54:52.933Z,20.30
2023-01-30T17:56:25.308Z,16.17
2023-01-30T17:57:48.821Z,19.90
2023-01-30T17:59:16.377Z,24.90
2023-01-30T18:00:38.502Z,20.50
2023-01-30T18:02:00.847Z,19.20
2023-01-30T18:03:23.033Z,15.47
2023-01-30T18:04:46.375Z,13.87
2023-01-30T18:06:12.579Z,15.17
2023-01-30T18:07:34.811Z,16.60
2023-01-30T18:08:59.599Z,12.87
2023-01-30T18:10:21.980Z,15.00
2023-01-30T18:11:44.153Z,11.60
2023-01-30T18:13:06.234Z,16.87
2023-01-30T18:14:28.273Z,23.13
2023-01-30T18:15:52.429Z,18.20
2023-01-30T18:17:14.490Z,19.90
2023-01-30T18:18:36.619Z,20.63
2023-01-30T18:20:01.019Z,16.67
2023-01-30T18:21:23.110Z,19.57
2023-01-30T18:22:45.581Z,23.17
2023-01-30T18:24:08.020Z,15.00
2023-01-30T18:25:30.094Z,13.23
2023-01-30T18:26:52.412Z,12.80
2023-01-30T18:28:14.762Z,28.70
2023-01-30T18:29:36.961Z,29.43
2023-01-30T18:30:59.229Z,13.00
2023-01-30T18:32:21.461Z,9.97
2023-01-30T18:33:47.405Z,14.93
2023-01-30T18:35:10.123Z,17.83
2023-01-30T18:36:34.923Z,25.90
2023-01-30T18:38:01.690Z,16.80
2023-01-30T18:39:24.946Z,14.63
2023-01-30T18:40:47.030Z,22.20
2023-01-30T18:42:09.264Z,16.77
2023-01-30T18:43:31.391Z,17.70
2023-01-30T18:44:53.504Z,14.30
2023-01-30T18:46:17.445Z,13.67
2023-01-30T18:47:39.680Z,13.77
2023-01-30T18:49:01.798Z,16.33
2023-01-30T18:50:23.873Z,17.83
2023-01-30T18:51:45.958Z,24.93
2023-01-30T18:53:08.410Z,14.70
2023-01-30T18:54:30.546Z,14.20
2023-01-30T18:55:52.663Z,20.70
2023-01-30T18:57:14.696Z,24.07
2023-01-30T18:58:36.904Z,11.30
2023-01-30T18:59:59.018Z,8.60
2023-01-30T19:01:23.932Z,12.50
2023-01-30T19:02:46.084Z,13.83
2023-01-30T19:04:10.304Z,17.03
2023-01-30T19:05:36.310Z,13.73
2023-01-30T19:06:58.535Z,12.87
2023-01-30T19:08:22.048Z,17.97
2023-01-30T19:09:44.205Z,24.27